sensor_id;sensor_type;location;lat;lon;timestamp;P1;durP1;ratioP1;P2;durP2;ratioP2
59062;SDS011;44851;45.648;9.004;2023-08-21T00:01:19;15.53;;;14.00;;
59062;SDS011;44851;45.648;9.004;2023-08-21T00:03:44;15.50;;;14.03;;
59062;SDS011;44851;45.648;9.004;2023-08-21T00:06:10;14.90;;;13.70;;
59062;SDS011;44851;45.648;9.004;2023-08-21T00:08:36;14.33;;;13.20;;
59062;SDS011;44851;45.648;9.004;2023-08-21T00:11:01;15.20;;;13.80;;
59062;SDS011;44851;45.648;9.004;2023-08-21T00:13:26;14.90;;;13.67;;
59062;SDS011;44851;45.648;9.004;2023-08-21T00:15:52;15.20;;;13.93;;
59062;SDS011;44851;45.648;9.004;2023-08-21T00:18:17;15.50;;;13.97;;
59062;SDS011;44851;45.648;9.004;2023-08-21T00:20:42;16.23;;;14.90;;
59062;SDS011;44851;45.648;9.004;2023-08-21T00:23:08;14.60;;;13.30;;
59062;SDS011;44851;45.648;9.004;2023-08-21T00:25:34;15.23;;;13.93;;
59062;SDS011;44851;45.648;9.004;2023-08-21T00:27:59;14.30;;;13.10;;
59062;SDS011;44851;45.648;9.004;2023-08-21T00:30:25;15.30;;;14.10;;
59062;SDS011;44851;45.648;9.004;2023-08-21T00:32:50;14.53;;;13.23;;
59062;SDS011;44851;45.648;9.004;2023-08-21T00:35:16;14.37;;;13.20;;
59062;SDS011;44851;45.648;9.004;2023-08-21T00:37:41;14.47;;;13.37;;
59062;SDS011;44851;45.648;9.004;2023-08-21T00:40:07;14.93;;;13.43;;
59062;SDS011;44851;45.648;9.004;2023-08-21T00:42:33;14.63;;;13.43;;
59062;SDS011;44851;45.648;9.004;2023-08-21T00:44:58;13.87;;;12.77;;
59062;SDS011;44851;45.648;9.004;2023-08-21T00:47:23;13.90;;;12.80;;
59062;SDS011;44851;45.648;9.004;2023-08-21T00:49:49;15.13;;;13.93;;
59062;SDS011;44851;45.648;9.004;2023-08-21T00:52:15;15.53;;;14.33;;
59062;SDS011;44851;45.648;9.004;2023-08-21T00:54:40;14.43;;;13.33;;
59062;SDS011;44851;45.648;9.004;2023-08-21T00:57:06;14.93;;;13.67;;
59062;SDS011;44851;45.648;9.004;2023-08-21T00:59:32;14.97;;;13.63;;
59062;SDS011;44851;45.648;9.004;2023-08-21T01:01:58;15.27;;;14.07;;
59062;SDS011;44851;45.648;9.004;2023-08-21T01:04:24;15.07;;;13.80;;
59062;SDS011;44851;45.648;9.004;2023-08-21T01:06:49;14.40;;;13.20;;
59062;SDS011;44851;45.648;9.004;2023-08-21T01:12:30;15.03;;;13.93;;
59062;SDS011;44851;45.648;9.004;2023-08-21T01:14:54;15.80;;;14.43;;
59062;SDS011;44851;45.648;9.004;2023-08-21T01:17:24;15.70;;;14.47;;
59062;SDS011;44851;45.648;9.004;2023-08-21T01:19:50;15.77;;;14.33;;
59062;SDS011;44851;45.648;9.004;2023-08-21T01:22:17;15.30;;;14.03;;
59062;SDS011;44851;45.648;9.004;2023-08-21T01:24:43;15.57;;;14.27;;
59062;SDS011;44851;45.648;9.004;2023-08-21T01:27:09;15.73;;;14.53;;
59062;SDS011;44851;45.648;9.004;2023-08-21T01:29:35;15.37;;;14.17;;
59062;SDS011;44851;45.648;9.004;2023-08-21T01:34:54;15.37;;;14.07;;
59062;SDS011;44851;45.648;9.004;2023-08-21T01:37:21;16.20;;;14.80;;
59062;SDS011;44851;45.648;9.004;2023-08-21T01:39:47;15.33;;;14.23;;
59062;SDS011;44851;45.648;9.004;2023-08-21T01:42:12;15.17;;;13.97;;
59062;SDS011;44851;45.648;9.004;2023-08-21T01:44:38;15.43;;;14.23;;
59062;SDS011;44851;45.648;9.004;2023-08-21T01:47:03;15.40;;;14.20;;
59062;SDS011;44851;45.648;9.004;2023-08-21T01:49:28;14.97;;;13.67;;
59062;SDS011;44851;45.648;9.004;2023-08-21T01:51:54;16.00;;;14.50;;
59062;SDS011;44851;45.648;9.004;2023-08-21T01:54:19;16.00;;;14.70;;
59062;SDS011;44851;45.648;9.004;2023-08-21T01:56:44;15.77;;;14.57;;
59062;SDS011;44851;45.648;9.004;2023-08-21T01:59:10;15.93;;;14.50;;
59062;SDS011;44851;45.648;9.004;2023-08-21T02:01:35;15.97;;;14.77;;
59062;SDS011;44851;45.648;9.004;2023-08-21T02:04:01;16.40;;;15.07;;
59062;SDS011;44851;45.648;9.004;2023-08-21T02:06:26;16.40;;;15.17;;
59062;SDS011;44851;45.648;9.004;2023-08-21T02:08:51;15.70;;;14.50;;
59062;SDS011;44851;45.648;9.004;2023-08-21T02:11:17;16.07;;;14.77;;
59062;SDS011;44851;45.648;9.004;2023-08-21T02:13:42;16.53;;;15.13;;
59062;SDS011;44851;45.648;9.004;2023-08-21T02:16:07;15.73;;;14.43;;
59062;SDS011;44851;45.648;9.004;2023-08-21T02:18:33;16.10;;;14.90;;
59062;SDS011;44851;45.648;9.004;2023-08-21T02:21:00;16.47;;;15.07;;
59062;SDS011;44851;45.648;9.004;2023-08-21T02:23:26;15.40;;;14.20;;
59062;SDS011;44851;45.648;9.004;2023-08-21T02:25:51;16.33;;;14.90;;
59062;SDS011;44851;45.648;9.004;2023-08-21T02:28:17;16.30;;;14.80;;
59062;SDS011;44851;45.648;9.004;2023-08-21T02:30:42;16.23;;;14.93;;
59062;SDS011;44851;45.648;9.004;2023-08-21T02:33:08;16.17;;;14.77;;
59062;SDS011;44851;45.648;9.004;2023-08-21T02:35:33;16.27;;;14.97;;
59062;SDS011;44851;45.648;9.004;2023-08-21T02:37:59;16.23;;;14.97;;
59062;SDS011;44851;45.648;9.004;2023-08-21T02:40:24;16.23;;;14.83;;
59062;SDS011;44851;45.648;9.004;2023-08-21T02:42:49;17.13;;;15.83;;
59062;SDS011;44851;45.648;9.004;2023-08-21T02:45:15;15.83;;;14.47;;
59062;SDS011;44851;45.648;9.004;2023-08-21T02:47:40;16.97;;;15.67;;
59062;SDS011;44851;45.648;9.004;2023-08-21T02:50:07;17.90;;;16.50;;
59062;SDS011;44851;45.648;9.004;2023-08-21T02:52:34;15.90;;;14.60;;
59062;SDS011;44851;45.648;9.004;2023-08-21T02:55:00;16.43;;;15.03;;
59062;SDS011;44851;45.648;9.004;2023-08-21T02:57:26;16.03;;;14.80;;
59062;SDS011;44851;45.648;9.004;2023-08-21T02:59:52;16.63;;;15.20;;
59062;SDS011;44851;45.648;9.004;2023-08-21T03:02:17;15.67;;;14.37;;
59062;SDS011;44851;45.648;9.004;2023-08-21T03:04:43;16.27;;;15.07;;
59062;SDS011;44851;45.648;9.004;2023-08-21T03:07:08;14.93;;;13.83;;
59062;SDS011;44851;45.648;9.004;2023-08-21T03:09:33;15.30;;;14.10;;
59062;SDS011;44851;45.648;9.004;2023-08-21T03:11:59;16.80;;;15.40;;
59062;SDS011;44851;45.648;9.004;2023-08-21T03:14:26;15.67;;;14.47;;
59062;SDS011;44851;45.648;9.004;2023-08-21T03:16:51;15.43;;;14.23;;
59062;SDS011;44851;45.648;9.004;2023-08-21T03:19:17;15.83;;;14.53;;
59062;SDS011;44851;45.648;9.004;2023-08-21T03:21:42;15.03;;;13.83;;
59062;SDS011;44851;45.648;9.004;2023-08-21T03:24:07;16.03;;;14.73;;
59062;SDS011;44851;45.648;9.004;2023-08-21T03:26:33;17.10;;;15.70;;
59062;SDS011;44851;45.648;9.004;2023-08-21T03:28:58;15.73;;;14.43;;
59062;SDS011;44851;45.648;9.004;2023-08-21T03:31:23;15.73;;;14.43;;
59062;SDS011;44851;45.648;9.004;2023-08-21T03:33:49;16.37;;;14.97;;
59062;SDS011;44851;45.648;9.004;2023-08-21T03:36:14;15.07;;;13.90;;
59062;SDS011;44851;45.648;9.004;2023-08-21T03:38:39;15.53;;;14.23;;
59062;SDS011;44851;45.648;9.004;2023-08-21T03:41:05;15.67;;;14.37;;
59062;SDS011;44851;45.648;9.004;2023-08-21T03:43:31;16.07;;;14.67;;
59062;SDS011;44851;45.648;9.004;2023-08-21T03:45:57;15.97;;;14.67;;
59062;SDS011;44851;45.648;9.004;2023-08-21T03:48:22;16.43;;;14.93;;
59062;SDS011;44851;45.648;9.004;2023-08-21T03:50:48;16.80;;;15.30;;
59062;SDS011;44851;45.648;9.004;2023-08-21T03:53:14;17.30;;;15.80;;
59062;SDS011;44851;45.648;9.004;2023-08-21T03:55:39;17.07;;;15.57;;
59062;SDS011;44851;45.648;9.004;2023-08-21T03:58:05;15.70;;;14.50;;
59062;SDS011;44851;45.648;9.004;2023-08-21T04:00:30;17.57;;;16.17;;
59062;SDS011;44851;45.648;9.004;2023-08-21T04:02:56;15.93;;;14.43;;
59062;SDS011;44851;45.648;9.004;2023-08-21T04:05:22;16.03;;;14.60;;
59062;SDS011;44851;45.648;9.004;2023-08-21T04:07:47;17.23;;;15.70;;
59062;SDS011;44851;45.648;9.004;2023-08-21T04:10:13;16.00;;;14.67;;
59062;SDS011;44851;45.648;9.004;2023-08-21T04:12:38;17.07;;;15.50;;
59062;SDS011;44851;45.648;9.004;2023-08-21T04:15:03;17.10;;;15.33;;
59062;SDS011;44851;45.648;9.004;2023-08-21T04:17:31;16.67;;;15.17;;
59062;SDS011;44851;45.648;9.004;2023-08-21T04:19:56;16.80;;;15.33;;
59062;SDS011;44851;45.648;9.004;2023-08-21T04:22:22;16.77;;;15.37;;
59062;SDS011;44851;45.648;9.004;2023-08-21T04:24:47;16.40;;;15.10;;
59062;SDS011;44851;45.648;9.004;2023-08-21T04:27:13;15.63;;;14.43;;
59062;SDS011;44851;45.648;9.004;2023-08-21T04:29:38;16.60;;;15.30;;
59062;SDS011;44851;45.648;9.004;2023-08-21T04:32:04;16.60;;;15.20;;
59062;SDS011;44851;45.648;9.004;2023-08-21T04:34:29;15.83;;;14.63;;
59062;SDS011;44851;45.648;9.004;2023-08-21T04:36:55;16.17;;;14.97;;
59062;SDS011;44851;45.648;9.004;2023-08-21T04:39:20;15.13;;;13.87;;
59062;SDS011;44851;45.648;9.004;2023-08-21T04:41:45;16.17;;;14.83;;
59062;SDS011;44851;45.648;9.004;2023-08-21T04:44:10;16.97;;;15.57;;
59062;SDS011;44851;45.648;9.004;2023-08-21T04:46:36;15.67;;;14.30;;
59062;SDS011;44851;45.648;9.004;2023-08-21T04:49:01;15.90;;;14.63;;
59062;SDS011;44851;45.648;9.004;2023-08-21T04:51:27;16.60;;;15.20;;
59062;SDS011;44851;45.648;9.004;2023-08-21T04:53:52;15.93;;;14.73;;
59062;SDS011;44851;45.648;9.004;2023-08-21T04:56:17;16.03;;;14.73;;
59062;SDS011;44851;45.648;9.004;2023-08-21T04:58:43;16.40;;;15.00;;
59062;SDS011;44851;45.648;9.004;2023-08-21T05:01:08;16.67;;;15.47;;
59062;SDS011;44851;45.648;9.004;2023-08-21T05:03:33;16.97;;;15.63;;
59062;SDS011;44851;45.648;9.004;2023-08-21T05:05:59;16.27;;;15.00;;
59062;SDS011;44851;45.648;9.004;2023-08-21T05:08:25;17.07;;;15.73;;
59062;SDS011;44851;45.648;9.004;2023-08-21T05:11:11;16.53;;;15.10;;
59062;SDS011;44851;45.648;9.004;2023-08-21T05:13:37;16.07;;;14.67;;
59062;SDS011;44851;45.648;9.004;2023-08-21T05:16:02;17.00;;;15.53;;
59062;SDS011;44851;45.648;9.004;2023-08-21T05:18:27;16.20;;;14.80;;
59062;SDS011;44851;45.648;9.004;2023-08-21T05:20:54;17.00;;;15.33;;
59062;SDS011;44851;45.648;9.004;2023-08-21T05:23:20;16.60;;;15.10;;
59062;SDS011;44851;45.648;9.004;2023-08-21T05:25:46;16.43;;;15.03;;
59062;SDS011;44851;45.648;9.004;2023-08-21T05:28:13;15.97;;;14.63;;
59062;SDS011;44851;45.648;9.004;2023-08-21T05:30:39;16.37;;;14.97;;
59062;SDS011;44851;45.648;9.004;2023-08-21T05:33:04;16.30;;;14.90;;
59062;SDS011;44851;45.648;9.004;2023-08-21T05:35:33;17.60;;;16.07;;
59062;SDS011;44851;45.648;9.004;2023-08-21T05:38:00;15.57;;;14.30;;
59062;SDS011;44851;45.648;9.004;2023-08-21T05:40:29;15.73;;;14.23;;
59062;SDS011;44851;45.648;9.004;2023-08-21T05:42:54;16.20;;;14.90;;
59062;SDS011;44851;45.648;9.004;2023-08-21T05:45:20;16.70;;;15.37;;
59062;SDS011;44851;45.648;9.004;2023-08-21T05:47:45;17.17;;;15.47;;
59062;SDS011;44851;45.648;9.004;2023-08-21T05:50:11;16.63;;;15.23;;
59062;SDS011;44851;45.648;9.004;2023-08-21T05:52:36;16.80;;;15.50;;
59062;SDS011;44851;45.648;9.004;2023-08-21T05:55:01;17.90;;;16.37;;
59062;SDS011;44851;45.648;9.004;2023-08-21T05:57:27;18.60;;;16.93;;
59062;SDS011;44851;45.648;9.004;2023-08-21T05:59:52;15.97;;;14.57;;
59062;SDS011;44851;45.648;9.004;2023-08-21T06:02:17;16.97;;;15.47;;
59062;SDS011;44851;45.648;9.004;2023-08-21T06:04:43;16.30;;;14.93;;
59062;SDS011;44851;45.648;9.004;2023-08-21T06:07:08;16.37;;;14.97;;
59062;SDS011;44851;45.648;9.004;2023-08-21T06:09:34;16.53;;;15.03;;
59062;SDS011;44851;45.648;9.004;2023-08-21T06:12:01;16.20;;;14.93;;
59062;SDS011;44851;45.648;9.004;2023-08-21T06:14:27;16.13;;;14.67;;
59062;SDS011;44851;45.648;9.004;2023-08-21T06:16:59;16.30;;;15.00;;
59062;SDS011;44851;45.648;9.004;2023-08-21T06:19:28;17.30;;;15.90;;
59062;SDS011;44851;45.648;9.004;2023-08-21T06:21:57;17.90;;;16.50;;
59062;SDS011;44851;45.648;9.004;2023-08-21T06:24:23;16.50;;;14.90;;
59062;SDS011;44851;45.648;9.004;2023-08-21T06:26:49;17.17;;;15.87;;
59062;SDS011;44851;45.648;9.004;2023-08-21T06:29:16;16.90;;;15.33;;
59062;SDS011;44851;45.648;9.004;2023-08-21T06:31:42;16.30;;;15.00;;
59062;SDS011;44851;45.648;9.004;2023-08-21T06:34:07;15.90;;;14.50;;
59062;SDS011;44851;45.648;9.004;2023-08-21T06:36:32;15.23;;;13.70;;
59062;SDS011;44851;45.648;9.004;2023-08-21T06:38:58;15.30;;;14.20;;
59062;SDS011;44851;45.648;9.004;2023-08-21T06:41:23;16.23;;;14.73;;
59062;SDS011;44851;45.648;9.004;2023-08-21T06:43:50;15.00;;;13.80;;
59062;SDS011;44851;45.648;9.004;2023-08-21T06:46:15;15.70;;;14.40;;
59062;SDS011;44851;45.648;9.004;2023-08-21T06:48:41;15.13;;;13.87;;
59062;SDS011;44851;45.648;9.004;2023-08-21T06:51:07;15.20;;;13.70;;
59062;SDS011;44851;45.648;9.004;2023-08-21T06:53:32;15.93;;;14.43;;
59062;SDS011;44851;45.648;9.004;2023-08-21T06:55:58;15.60;;;14.20;;
59062;SDS011;44851;45.648;9.004;2023-08-21T06:58:23;15.33;;;13.97;;
59062;SDS011;44851;45.648;9.004;2023-08-21T07:00:48;14.67;;;13.47;;
59062;SDS011;44851;45.648;9.004;2023-08-21T07:03:14;16.52;;;14.70;;
59062;SDS011;44851;45.648;9.004;2023-08-21T07:05:39;17.25;;;13.48;;
59062;SDS011;44851;45.648;9.004;2023-08-21T07:08:04;16.00;;;14.57;;
59062;SDS011;44851;45.648;9.004;2023-08-21T07:10:35;15.30;;;13.85;;
59062;SDS011;44851;45.648;9.004;2023-08-21T07:13:02;15.65;;;14.13;;
59062;SDS011;44851;45.648;9.004;2023-08-21T07:15:28;13.88;;;12.77;;
59062;SDS011;44851;45.648;9.004;2023-08-21T07:17:54;15.07;;;13.77;;
59062;SDS011;44851;45.648;9.004;2023-08-21T07:20:20;15.70;;;14.38;;
59062;SDS011;44851;45.648;9.004;2023-08-21T07:22:46;15.00;;;13.60;;
59062;SDS011;44851;45.648;9.004;2023-08-21T07:25:11;14.65;;;13.40;;
59062;SDS011;44851;45.648;9.004;2023-08-21T07:27:36;14.70;;;13.40;;
59062;SDS011;44851;45.648;9.004;2023-08-21T07:30:02;12.85;;;11.70;;
59062;SDS011;44851;45.648;9.004;2023-08-21T07:32:27;13.13;;;11.90;;
59062;SDS011;44851;45.648;9.004;2023-08-21T07:34:53;13.50;;;12.20;;
59062;SDS011;44851;45.648;9.004;2023-08-21T07:37:21;13.07;;;11.98;;
59062;SDS011;44851;45.648;9.004;2023-08-21T07:39:47;13.10;;;11.80;;
59062;SDS011;44851;45.648;9.004;2023-08-21T07:42:12;11.88;;;10.77;;
59062;SDS011;44851;45.648;9.004;2023-08-21T07:44:38;11.50;;;10.50;;
59062;SDS011;44851;45.648;9.004;2023-08-21T07:47:04;11.90;;;10.82;;
59062;SDS011;44851;45.648;9.004;2023-08-21T07:49:30;11.75;;;10.80;;
59062;SDS011;44851;45.648;9.004;2023-08-21T07:51:56;11.80;;;10.82;;
59062;SDS011;44851;45.648;9.004;2023-08-21T07:54:21;11.43;;;10.48;;
59062;SDS011;44851;45.648;9.004;2023-08-21T07:56:47;10.50;;;9.60;;
59062;SDS011;44851;45.648;9.004;2023-08-21T07:59:12;10.65;;;9.77;;
59062;SDS011;44851;45.648;9.004;2023-08-21T08:01:38;10.73;;;9.90;;
59062;SDS011;44851;45.648;9.004;2023-08-21T08:04:03;11.60;;;10.60;;
59062;SDS011;44851;45.648;9.004;2023-08-21T08:06:29;11.27;;;10.27;;
59062;SDS011;44851;45.648;9.004;2023-08-21T08:08:56;10.85;;;9.85;;
59062;SDS011;44851;45.648;9.004;2023-08-21T08:11:22;11.00;;;10.00;;
59062;SDS011;44851;45.648;9.004;2023-08-21T08:13:48;10.77;;;9.30;;
59062;SDS011;44851;45.648;9.004;2023-08-21T08:16:13;10.50;;;9.38;;
59062;SDS011;44851;45.648;9.004;2023-08-21T08:18:38;9.57;;;8.68;;
59062;SDS011;44851;45.648;9.004;2023-08-21T08:21:03;10.00;;;9.02;;
59062;SDS011;44851;45.648;9.004;2023-08-21T08:23:29;11.00;;;10.05;;
59062;SDS011;44851;45.648;9.004;2023-08-21T08:25:55;10.80;;;9.80;;
59062;SDS011;44851;45.648;9.004;2023-08-21T08:28:20;10.02;;;9.20;;
59062;SDS011;44851;45.648;9.004;2023-08-21T08:30:46;10.82;;;10.00;;
59062;SDS011;44851;45.648;9.004;2023-08-21T08:33:11;11.30;;;10.30;;
59062;SDS011;44851;45.648;9.004;2023-08-21T08:35:36;10.68;;;9.68;;
59062;SDS011;44851;45.648;9.004;2023-08-21T08:38:02;10.60;;;9.63;;
59062;SDS011;44851;45.648;9.004;2023-08-21T08:40:29;11.18;;;10.05;;
59062;SDS011;44851;45.648;9.004;2023-08-21T08:42:55;10.63;;;9.73;;
59062;SDS011;44851;45.648;9.004;2023-08-21T08:45:27;10.60;;;9.75;;
59062;SDS011;44851;45.648;9.004;2023-08-21T08:47:58;10.60;;;9.70;;
59062;SDS011;44851;45.648;9.004;2023-08-21T08:50:25;10.98;;;9.95;;
59062;SDS011;44851;45.648;9.004;2023-08-21T08:52:55;10.23;;;9.52;;
59062;SDS011;44851;45.648;9.004;2023-08-21T08:55:22;11.02;;;9.85;;
59062;SDS011;44851;45.648;9.004;2023-08-21T08:57:48;11.55;;;10.48;;
59062;SDS011;44851;45.648;9.004;2023-08-21T09:00:13;11.38;;;10.32;;
59062;SDS011;44851;45.648;9.004;2023-08-21T09:02:39;10.15;;;9.25;;
59062;SDS011;44851;45.648;9.004;2023-08-21T09:05:04;10.85;;;9.93;;
59062;SDS011;44851;45.648;9.004;2023-08-21T09:07:31;10.30;;;9.60;;
59062;SDS011;44851;45.648;9.004;2023-08-21T09:10:00;10.65;;;9.63;;
59062;SDS011;44851;45.648;9.004;2023-08-21T09:12:31;11.25;;;10.27;;
59062;SDS011;44851;45.648;9.004;2023-08-21T09:14:57;11.15;;;10.02;;
59062;SDS011;44851;45.648;9.004;2023-08-21T09:17:25;11.73;;;10.57;;
59062;SDS011;44851;45.648;9.004;2023-08-21T09:19:51;11.55;;;10.65;;
59062;SDS011;44851;45.648;9.004;2023-08-21T09:22:17;11.55;;;10.45;;
59062;SDS011;44851;45.648;9.004;2023-08-21T09:25:05;11.02;;;10.10;;
59062;SDS011;44851;45.648;9.004;2023-08-21T09:27:32;10.40;;;9.50;;
59062;SDS011;44851;45.648;9.004;2023-08-21T09:29:59;9.75;;;8.93;;
59062;SDS011;44851;45.648;9.004;2023-08-21T09:32:27;12.57;;;9.75;;
59062;SDS011;44851;45.648;9.004;2023-08-21T09:34:52;11.45;;;9.43;;
59062;SDS011;44851;45.648;9.004;2023-08-21T09:37:17;10.40;;;9.50;;
59062;SDS011;44851;45.648;9.004;2023-08-21T09:39:43;9.90;;;8.90;;
59062;SDS011;44851;45.648;9.004;2023-08-21T09:42:09;10.05;;;8.98;;
59062;SDS011;44851;45.648;9.004;2023-08-21T09:44:41;10.02;;;9.23;;
59062;SDS011;44851;45.648;9.004;2023-08-21T09:47:11;9.73;;;9.02;;
59062;SDS011;44851;45.648;9.004;2023-08-21T09:49:37;11.13;;;9.40;;
59062;SDS011;44851;45.648;9.004;2023-08-21T09:52:04;9.50;;;8.80;;
59062;SDS011;44851;45.648;9.004;2023-08-21T09:54:32;9.52;;;8.77;;
59062;SDS011;44851;45.648;9.004;2023-08-21T09:57:02;9.93;;;9.02;;
59062;SDS011;44851;45.648;9.004;2023-08-21T09:59:30;9.38;;;8.57;;
59062;SDS011;44851;45.648;9.004;2023-08-21T10:01:56;9.15;;;8.45;;
59062;SDS011;44851;45.648;9.004;2023-08-21T10:04:28;9.50;;;8.75;;
59062;SDS011;44851;45.648;9.004;2023-08-21T10:06:55;9.20;;;8.32;;
59062;SDS011;44851;45.648;9.004;2023-08-21T10:09:21;9.10;;;8.40;;
59062;SDS011;44851;45.648;9.004;2023-08-21T10:11:48;11.75;;;9.32;;
59062;SDS011;44851;45.648;9.004;2023-08-21T10:14:14;11.05;;;10.05;;
59062;SDS011;44851;45.648;9.004;2023-08-21T10:16:39;10.60;;;9.57;;
59062;SDS011;44851;45.648;9.004;2023-08-21T10:19:06;10.38;;;9.38;;
59062;SDS011;44851;45.648;9.004;2023-08-21T10:21:35;10.90;;;10.00;;
59062;SDS011;44851;45.648;9.004;2023-08-21T10:24:04;9.98;;;9.20;;
59062;SDS011;44851;45.648;9.004;2023-08-21T10:26:30;10.93;;;9.70;;
59062;SDS011;44851;45.648;9.004;2023-08-21T10:29:02;10.20;;;9.38;;
59062;SDS011;44851;45.648;9.004;2023-08-21T10:34:02;10.35;;;9.40;;
59062;SDS011;44851;45.648;9.004;2023-08-21T10:49:43;11.30;;;10.30;;
59062;SDS011;44851;45.648;9.004;2023-08-21T10:52:09;11.40;;;10.60;;
59062;SDS011;44851;45.648;9.004;2023-08-21T10:54:42;11.38;;;10.35;;
59062;SDS011;44851;45.648;9.004;2023-08-21T10:57:09;11.18;;;10.18;;
59062;SDS011;44851;45.648;9.004;2023-08-21T10:59:34;10.77;;;9.88;;
59062;SDS011;44851;45.648;9.004;2023-08-21T11:01:59;11.38;;;10.48;;
59062;SDS011;44851;45.648;9.004;2023-08-21T11:04:25;11.68;;;10.68;;
59062;SDS011;44851;45.648;9.004;2023-08-21T11:06:51;11.13;;;10.23;;
59062;SDS011;44851;45.648;9.004;2023-08-21T11:09:17;11.85;;;10.75;;
59062;SDS011;44851;45.648;9.004;2023-08-21T11:11:43;10.93;;;10.10;;
59062;SDS011;44851;45.648;9.004;2023-08-21T11:14:08;10.27;;;9.55;;
59062;SDS011;44851;45.648;9.004;2023-08-21T11:16:34;10.65;;;9.85;;
59062;SDS011;44851;45.648;9.004;2023-08-21T11:19:02;10.65;;;9.85;;
59062;SDS011;44851;45.648;9.004;2023-08-21T11:21:28;10.77;;;9.88;;
59062;SDS011;44851;45.648;9.004;2023-08-21T11:23:54;10.63;;;9.68;;
59062;SDS011;44851;45.648;9.004;2023-08-21T11:26:20;11.35;;;10.25;;
59062;SDS011;44851;45.648;9.004;2023-08-21T11:28:46;10.57;;;9.68;;
59062;SDS011;44851;45.648;9.004;2023-08-21T11:31:12;10.68;;;9.75;;
59062;SDS011;44851;45.648;9.004;2023-08-21T11:33:38;10.32;;;9.52;;
59062;SDS011;44851;45.648;9.004;2023-08-21T11:36:04;10.02;;;9.13;;
59062;SDS011;44851;45.648;9.004;2023-08-21T11:38:29;10.57;;;9.60;;
59062;SDS011;44851;45.648;9.004;2023-08-21T11:40:58;9.98;;;9.18;;
59062;SDS011;44851;45.648;9.004;2023-08-21T11:43:48;10.32;;;9.43;;
59062;SDS011;44851;45.648;9.004;2023-08-21T11:46:13;10.32;;;9.48;;
59062;SDS011;44851;45.648;9.004;2023-08-21T11:48:39;10.50;;;9.52;;
59062;SDS011;44851;45.648;9.004;2023-08-21T11:51:06;10.75;;;9.25;;
59062;SDS011;44851;45.648;9.004;2023-08-21T11:53:33;10.50;;;9.60;;
59062;SDS011;44851;45.648;9.004;2023-08-21T11:56:08;9.70;;;8.80;;
59062;SDS011;44851;45.648;9.004;2023-08-21T11:58:37;10.25;;;9.27;;
59062;SDS011;44851;45.648;9.004;2023-08-21T12:01:04;9.13;;;8.43;;
59062;SDS011;44851;45.648;9.004;2023-08-21T12:03:30;9.73;;;8.93;;
59062;SDS011;44851;45.648;9.004;2023-08-21T12:06:04;9.82;;;8.80;;
59062;SDS011;44851;45.648;9.004;2023-08-21T12:08:30;9.73;;;8.93;;
59062;SDS011;44851;45.648;9.004;2023-08-21T12:10:55;10.10;;;9.10;;
59062;SDS011;44851;45.648;9.004;2023-08-21T12:13:21;8.68;;;7.93;;
59062;SDS011;44851;45.648;9.004;2023-08-21T12:15:46;9.10;;;8.50;;
59062;SDS011;44851;45.648;9.004;2023-08-21T12:18:11;9.25;;;8.45;;
59062;SDS011;44851;45.648;9.004;2023-08-21T12:20:37;10.50;;;9.60;;
59062;SDS011;44851;45.648;9.004;2023-08-21T12:23:02;10.60;;;9.80;;
59062;SDS011;44851;45.648;9.004;2023-08-21T12:25:28;9.85;;;9.00;;
59062;SDS011;44851;45.648;9.004;2023-08-21T12:27:53;9.95;;;9.13;;
59062;SDS011;44851;45.648;9.004;2023-08-21T12:30:18;10.10;;;9.20;;
59062;SDS011;44851;45.648;9.004;2023-08-21T12:32:44;9.43;;;8.63;;
59062;SDS011;44851;45.648;9.004;2023-08-21T12:35:09;10.23;;;9.32;;
59062;SDS011;44851;45.648;9.004;2023-08-21T12:37:37;9.95;;;9.13;;
59062;SDS011;44851;45.648;9.004;2023-08-21T12:40:02;10.32;;;9.48;;
59062;SDS011;44851;45.648;9.004;2023-08-21T12:42:28;9.65;;;8.95;;
59062;SDS011;44851;45.648;9.004;2023-08-21T12:44:53;9.05;;;8.38;;
59062;SDS011;44851;45.648;9.004;2023-08-21T12:47:18;9.35;;;8.55;;
59062;SDS011;44851;45.648;9.004;2023-08-21T12:49:44;9.18;;;8.48;;
59062;SDS011;44851;45.648;9.004;2023-08-21T12:52:09;12.05;;;9.13;;
59062;SDS011;44851;45.648;9.004;2023-08-21T12:54:37;9.75;;;8.73;;
59062;SDS011;44851;45.648;9.004;2023-08-21T12:57:03;9.55;;;8.70;;
59062;SDS011;44851;45.648;9.004;2023-08-21T12:59:29;9.40;;;8.70;;
59062;SDS011;44851;45.648;9.004;2023-08-21T13:01:54;9.77;;;8.88;;
59062;SDS011;44851;45.648;9.004;2023-08-21T13:04:20;9.63;;;8.93;;
59062;SDS011;44851;45.648;9.004;2023-08-21T13:06:45;9.50;;;8.55;;
59062;SDS011;44851;45.648;9.004;2023-08-21T13:09:10;9.75;;;8.68;;
59062;SDS011;44851;45.648;9.004;2023-08-21T13:11:36;9.27;;;8.50;;
59062;SDS011;44851;45.648;9.004;2023-08-21T13:14:02;8.93;;;7.95;;
59062;SDS011;44851;45.648;9.004;2023-08-21T13:16:28;9.18;;;8.27;;
59062;SDS011;44851;45.648;9.004;2023-08-21T13:18:54;9.73;;;8.70;;
59062;SDS011;44851;45.648;9.004;2023-08-21T13:21:19;8.90;;;8.13;;
59062;SDS011;44851;45.648;9.004;2023-08-21T13:23:45;9.00;;;8.20;;
59062;SDS011;44851;45.648;9.004;2023-08-21T13:26:10;9.20;;;8.43;;
59062;SDS011;44851;45.648;9.004;2023-08-21T13:28:36;9.27;;;8.35;;
59062;SDS011;44851;45.648;9.004;2023-08-21T13:31:01;9.90;;;9.00;;
59062;SDS011;44851;45.648;9.004;2023-08-21T13:33:28;10.27;;;9.38;;
59062;SDS011;44851;45.648;9.004;2023-08-21T13:35:53;10.20;;;9.13;;
59062;SDS011;44851;45.648;9.004;2023-08-21T13:38:18;11.02;;;10.13;;
59062;SDS011;44851;45.648;9.004;2023-08-21T13:40:44;14.38;;;9.80;;
59062;SDS011;44851;45.648;9.004;2023-08-21T13:43:09;9.95;;;9.10;;
59062;SDS011;44851;45.648;9.004;2023-08-21T13:45:37;10.57;;;9.68;;
59062;SDS011;44851;45.648;9.004;2023-08-21T13:48:04;10.40;;;9.18;;
59062;SDS011;44851;45.648;9.004;2023-08-21T13:50:30;10.23;;;9.43;;
59062;SDS011;44851;45.648;9.004;2023-08-21T13:52:56;11.52;;;9.73;;
59062;SDS011;44851;45.648;9.004;2023-08-21T13:55:21;10.73;;;9.65;;
59062;SDS011;44851;45.648;9.004;2023-08-21T13:57:47;11.55;;;10.48;;
59062;SDS011;44851;45.648;9.004;2023-08-21T14:00:12;9.98;;;9.27;;
59062;SDS011;44851;45.648;9.004;2023-08-21T14:02:38;10.77;;;9.98;;
59062;SDS011;44851;45.648;9.004;2023-08-21T14:05:06;10.45;;;9.50;;
59062;SDS011;44851;45.648;9.004;2023-08-21T14:07:32;11.40;;;10.30;;
59062;SDS011;44851;45.648;9.004;2023-08-21T14:09:59;10.90;;;9.80;;
59062;SDS011;44851;45.648;9.004;2023-08-21T14:12:25;10.30;;;9.48;;
59062;SDS011;44851;45.648;9.004;2023-08-21T14:14:52;11.30;;;10.50;;
59062;SDS011;44851;45.648;9.004;2023-08-21T14:17:17;11.20;;;10.40;;
59062;SDS011;44851;45.648;9.004;2023-08-21T14:19:43;11.40;;;10.30;;
59062;SDS011;44851;45.648;9.004;2023-08-21T14:22:08;10.93;;;9.93;;
59062;SDS011;44851;45.648;9.004;2023-08-21T14:24:33;11.05;;;10.07;;
59062;SDS011;44851;45.648;9.004;2023-08-21T14:26:59;10.50;;;9.80;;
59062;SDS011;44851;45.648;9.004;2023-08-21T14:29:24;11.10;;;10.30;;
59062;SDS011;44851;45.648;9.004;2023-08-21T14:31:50;10.90;;;9.95;;
59062;SDS011;44851;45.648;9.004;2023-08-21T14:34:18;11.48;;;10.57;;
59062;SDS011;44851;45.648;9.004;2023-08-21T14:36:45;10.80;;;9.93;;
59062;SDS011;44851;45.648;9.004;2023-08-21T14:39:10;10.50;;;9.73;;
59062;SDS011;44851;45.648;9.004;2023-08-21T14:41:37;10.90;;;9.90;;
59062;SDS011;44851;45.648;9.004;2023-08-21T14:44:02;11.20;;;10.18;;